Time;durP1;ratioP1;P1;durP2;ratioP2;P2;SDS_P1;SDS_P2;PMS_P1;PMS_P2;Temp;Humidity;BMP_temperature;BMP_pressure;BME280_temperature;BME280_humidity;BME280_pressure;Samples;Min_cycle;Max_cycle;Signal;HPM_P1;HPM_P2
2022/08/18 00:00:28;;;;;;;;;;;25.40;84.70;;;;;;4932609;29;20009;-64
2022/08/18 00:02:55;;;;;;;;;;;25.30;84.90;;;;;;4954540;28;20498;-65
2022/08/18 00:05:20;;;;;;;;;;;25.20;85.10;;;;;;4958998;28;19925;-66
2022/08/18 00:07:46;;;;;;;;;;;25.30;85.90;;;;;;4962908;28;19915;-64
2022/08/18 00:10:12;;;;;;;;;;;25.20;85.50;;;;;;4966710;28;19922;-65
2022/08/18 00:12:39;;;;;;;;;;;25.10;85.70;;;;;;4961279;28;20400;-65
2022/08/18 00:15:09;;;;;;;;;;;25.10;85.70;;;;;;4958715;28;19914;-65
2022/08/18 00:17:35;;;;;;;;;;;25.10;85.60;;;;;;4966784;28;19919;-64
2022/08/18 00:20:02;;;;;;;;;;;25.10;85.30;;;;;;4962130;28;19910;-64
2022/08/18 00:22:28;;;;;;;;;;;25.20;85.00;;;;;;4958944;28;19915;-66
2022/08/18 00:24:54;;;;;;;;;;;25.10;85.30;;;;;;4965668;28;19981;-65
2022/08/18 00:27:22;;;;;;;;;;;24.90;85.90;;;;;;4966140;28;19917;-66
2022/08/18 00:29:47;;;;;;;;;;;24.90;86.20;;;;;;4948452;28;20275;-66
2022/08/18 00:32:14;;;;;;;;;;;24.90;86.10;;;;;;4961503;28;19917;-66
2022/08/18 00:34:40;;;;;;;;;;;24.80;86.20;;;;;;4967328;28;20350;-64
2022/08/18 00:37:05;;;;;;;;;;;24.80;86.50;;;;;;4962561;28;19910;-65
2022/08/18 00:39:33;;;;;;;;;;;24.80;86.20;;;;;;4958854;28;20381;-64
2022/08/18 00:41:59;;;;;;;;;;;24.90;85.50;;;;;;4964950;28;19966;-65
2022/08/18 00:44:24;;;;;;;;;;;24.90;85.50;;;;;;4966526;28;19910;-64
2022/08/18 00:46:50;;;;;;;;;;;24.90;85.50;;;;;;4958907;28;20321;-64
2022/08/18 00:49:17;;;;;;;;;;;24.90;85.20;;;;;;4960868;28;20430;-64
2022/08/18 00:51:46;;;;;;;;;;;24.90;85.70;;;;;;4966634;28;19921;-64
2022/08/18 00:54:22;;;;;;;;;;;24.80;86.00;;;;;;4963341;28;20385;-65
2022/08/18 00:56:55;;;;;;;;;;;24.80;86.20;;;;;;4962345;28;19918;-66
2022/08/18 00:59:42;;;;;;;;;;;24.70;86.30;;;;;;4952748;28;20467;-65
2022/08/18 01:02:11;;;;;;;;;;;24.70;86.80;;;;;;4969941;28;19910;-65
2022/08/18 01:04:40;;;;;;;;;;;24.70;86.50;;;;;;4968142;28;19917;-64
2022/08/18 01:07:09;;;;;;;;;;;24.70;87.80;;;;;;4962163;28;19914;-65
2022/08/18 01:09:35;;;;;;;;;;;24.60;87.10;;;;;;4964872;28;20005;-64
2022/08/18 01:12:01;;;;;;;;;;;24.60;87.10;;;;;;4969906;28;20341;-64
2022/08/18 01:14:26;;;;;;;;;;;24.50;87.30;;;;;;4960074;28;20432;-65
2022/08/18 01:22:21;;;;;;;;;;;24.50;87.50;;;;;;4962381;28;19917;-65
2022/08/18 01:27:33;;;;;;;;;;;24.50;86.80;;;;;;4969846;28;19980;-65
2022/08/18 01:30:02;;;;;;;;;;;24.50;86.90;;;;;;4947866;28;20384;-65
2022/08/18 01:32:28;;;;;;;;;;;24.40;86.80;;;;;;4962127;28;19910;-65
2022/08/18 01:34:53;;;;;;;;;;;24.40;87.30;;;;;;4969340;28;20010;-65
2022/08/18 01:37:21;;;;;;;;;;;24.20;87.90;;;;;;4967000;28;19910;-66
2022/08/18 01:39:47;;;;;;;;;;;24.30;88.00;;;;;;4961275;28;20282;-65
2022/08/18 01:42:15;;;;;;;;;;;24.20;87.70;;;;;;4965640;28;19934;-65
2022/08/18 01:44:41;;;;;;;;;;;24.20;87.80;;;;;;4969110;28;19964;-66
2022/08/18 01:47:09;;;;;;;;;;;24.20;87.90;;;;;;4964022;28;20281;-64
2022/08/18 01:49:35;;;;;;;;;;;24.10;88.20;;;;;;4961175;28;19914;-65
2022/08/18 01:52:00;;;;;;;;;;;24.30;87.80;;;;;;4969157;28;19981;-66
2022/08/18 01:54:29;;;;;;;;;;;24.30;87.60;;;;;;4967514;28;19972;-64
2022/08/18 01:56:54;;;;;;;;;;;24.40;87.40;;;;;;4961027;28;20017;-65
2022/08/18 01:59:20;;;;;;;;;;;24.40;87.10;;;;;;4955664;28;20021;-65
2022/08/18 02:01:46;;;;;;;;;;;24.30;86.80;;;;;;4968870;28;19945;-65
2022/08/18 02:04:13;;;;;;;;;;;24.30;86.70;;;;;;4963802;28;19922;-65
2022/08/18 02:06:39;;;;;;;;;;;24.30;86.40;;;;;;4959947;28;19972;-65
2022/08/18 02:09:04;;;;;;;;;;;24.20;86.00;;;;;;4967777;28;19958;-65
2022/08/18 02:11:30;;;;;;;;;;;24.20;86.30;;;;;;4967764;28;20325;-66
2022/08/18 02:13:55;;;;;;;;;;;24.20;85.60;;;;;;4960113;28;19960;-65
2022/08/18 02:16:21;;;;;;;;;;;24.20;84.80;;;;;;4961847;28;19918;-65
2022/08/18 02:18:47;;;;;;;;;;;24.30;84.40;;;;;;4961782;28;19914;-66
2022/08/18 02:21:16;;;;;;;;;;;24.30;84.60;;;;;;4969420;28;20001;-66
2022/08/18 02:23:42;;;;;;;;;;;24.30;85.20;;;;;;4966360;28;20322;-64
2022/08/18 02:26:09;;;;;;;;;;;24.20;85.40;;;;;;4960437;28;20013;-65
2022/08/18 02:28:35;;;;;;;;;;;24.20;86.00;;;;;;4965025;28;19938;-64
2022/08/18 02:31:08;;;;;;;;;;;24.10;86.00;;;;;;4954310;28;20051;-64
2022/08/18 02:33:34;;;;;;;;;;;24.10;85.60;;;;;;4962904;28;20036;-65
2022/08/18 02:36:00;;;;;;;;;;;24.10;85.70;;;;;;4960311;28;20438;-66
2022/08/18 02:38:25;;;;;;;;;;;24.00;85.90;;;;;;4967649;28;19914;-66
2022/08/18 02:40:55;;;;;;;;;;;24.00;86.30;;;;;;4966824;28;20374;-67
2022/08/18 02:43:21;;;;;;;;;;;24.00;86.40;;;;;;4960121;28;19917;-66
2022/08/18 02:45:47;;;;;;;;;;;24.00;86.60;;;;;;4962987;28;20046;-66
2022/08/18 02:48:12;;;;;;;;;;;23.90;86.90;;;;;;4968039;28;19914;-65
2022/08/18 02:50:47;;;;;;;;;;;23.80;87.10;;;;;;4963337;28;19914;-65
2022/08/18 02:53:23;;;;;;;;;;;23.90;87.00;;;;;;4959927;28;19960;-65
2022/08/18 02:55:49;;;;;;;;;;;23.80;86.80;;;;;;4964393;28;19966;-65
2022/08/18 02:58:15;;;;;;;;;;;23.80;86.50;;;;;;4967922;28;20414;-65
2022/08/18 03:00:41;;;;;;;;;;;23.80;86.50;;;;;;4947477;28;19961;-65
2022/08/18 03:03:07;;;;;;;;;;;23.70;86.80;;;;;;4959847;28;20362;-65
2022/08/18 03:05:33;;;;;;;;;;;23.70;87.00;;;;;;4967878;28;19947;-65
2022/08/18 03:07:59;;;;;;;;;;;23.70;86.50;;;;;;4965881;28;19914;-65
2022/08/18 03:10:24;;;;;;;;;;;23.70;86.20;;;;;;4959861;28;19997;-65
2022/08/18 03:12:50;;;;;;;;;;;23.70;86.20;;;;;;4964050;28;20282;-66
2022/08/18 03:15:16;;;;;;;;;;;23.80;86.00;;;;;;4958146;28;19918;-66
2022/08/18 03:17:41;;;;;;;;;;;23.80;85.60;;;;;;4967480;28;20396;-65
2022/08/18 03:20:07;;;;;;;;;;;23.70;85.50;;;;;;4963757;28;20405;-66
2022/08/18 03:22:33;;;;;;;;;;;23.70;85.70;;;;;;4959839;28;20306;-65
2022/08/18 03:24:58;;;;;;;;;;;23.70;85.70;;;;;;4965608;28;20381;-66
2022/08/18 03:27:24;;;;;;;;;;;23.70;85.50;;;;;;4967293;28;19921;-66
2022/08/18 03:29:50;;;;;;;;;;;23.70;85.20;;;;;;4945711;28;19921;-64
2022/08/18 03:32:15;;;;;;;;;;;23.70;85.10;;;;;;4961703;28;19918;-64
2022/08/18 03:34:42;;;;;;;;;;;23.70;84.90;;;;;;4967369;28;19910;-65
2022/08/18 03:37:08;;;;;;;;;;;23.70;84.60;;;;;;4963312;28;19985;-65
2022/08/18 03:39:34;;;;;;;;;;;23.70;84.40;;;;;;4959377;28;19950;-64
2022/08/18 03:41:59;;;;;;;;;;;23.70;84.30;;;;;;4965346;28;20286;-64
2022/08/18 03:44:26;;;;;;;;;;;23.60;84.40;;;;;;4967318;28;19914;-64
2022/08/18 03:46:52;;;;;;;;;;;23.70;84.10;;;;;;4966814;28;19918;-65
2022/08/18 03:49:19;;;;;;;;;;;23.70;84.10;;;;;;4947808;28;20273;-64
2022/08/18 03:51:46;;;;;;;;;;;23.70;83.60;;;;;;4959294;28;19914;-67
2022/08/18 03:54:12;;;;;;;;;;;23.70;83.40;;;;;;4962749;28;19921;-65
2022/08/18 03:56:38;;;;;;;;;;;23.70;83.30;;;;;;4966855;28;20005;-63
2022/08/18 03:59:07;;;;;;;;;;;23.80;83.20;;;;;;4947516;28;19993;-65
2022/08/18 04:01:37;;;;;;;;;;;23.90;77.90;;;;;;4959284;28;20260;-65
2022/08/18 04:04:04;;;;;;;;;;;24.10;74.20;;;;;;4965208;28;19938;-63
2022/08/18 04:06:32;;;;;;;;;;;24.30;73.10;;;;;;4966582;28;19933;-66
2022/08/18 04:08:59;;;;;;;;;;;24.50;72.20;;;;;;4966972;28;19992;-65
2022/08/18 04:11:27;;;;;;;;;;;24.60;71.90;;;;;;4965253;28;20389;-66
2022/08/18 04:13:53;;;;;;;;;;;24.70;70.80;;;;;;4958427;28;19917;-63
2022/08/18 04:16:19;;;;;;;;;;;24.70;70.10;;;;;;4959937;28;19910;-66
2022/08/18 04:18:44;;;;;;;;;;;24.80;69.60;;;;;;4960499;28;20307;-62
2022/08/18 04:21:12;;;;;;;;;;;24.80;69.20;;;;;;4966935;28;19918;-64
2022/08/18 04:23:38;;;;;;;;;;;24.80;69.60;;;;;;4963688;28;19914;-65
2022/08/18 04:26:04;;;;;;;;;;;24.80;69.30;;;;;;4958929;28;19973;-69
2022/08/18 04:28:31;;;;;;;;;;;24.80;69.70;;;;;;4963909;28;19914;-65
2022/08/18 04:30:59;;;;;;;;;;;24.80;70.10;;;;;;4959681;28;19914;-66
2022/08/18 04:33:26;;;;;;;;;;;24.80;70.40;;;;;;4964321;28;20615;-66
2022/08/18 04:35:52;;;;;;;;;;;24.80;70.20;;;;;;4946067;29;20374;-66
2022/08/18 04:38:18;;;;;;;;;;;24.90;70.30;;;;;;4970546;28;19921;-65
2022/08/18 04:40:43;;;;;;;;;;;24.90;70.10;;;;;;4967913;28;19910;-64
2022/08/18 04:43:13;;;;;;;;;;;25.00;70.10;;;;;;4962465;28;19964;-65
2022/08/18 04:45:45;;;;;;;;;;;25.00;70.20;;;;;;4966332;28;19922;-64
2022/08/18 04:48:11;;;;;;;;;;;25.00;70.10;;;;;;4970346;28;19921;-63
2022/08/18 04:50:37;;;;;;;;;;;25.10;69.40;;;;;;4964973;28;19910;-63
2022/08/18 04:55:52;;;;;;;;;;;25.10;70.30;;;;;;4966725;28;19958;-67
2022/08/18 04:58:18;;;;;;;;;;;25.10;70.20;;;;;;4970038;28;19919;-64
2022/08/18 05:00:44;;;;;;;;;;;25.20;69.90;;;;;;4955965;28;19920;-65
2022/08/18 05:03:11;;;;;;;;;;;25.20;69.00;;;;;;4962130;28;20024;-64
2022/08/18 05:05:36;;;;;;;;;;;25.30;68.50;;;;;;4969471;28;19922;-63
2022/08/18 05:08:02;;;;;;;;;;;25.40;68.30;;;;;;4968270;28;19964;-64
2022/08/18 05:10:28;;;;;;;;;;;25.30;69.70;;;;;;4961877;28;19914;-66
2022/08/18 05:12:54;;;;;;;;;;;25.30;70.40;;;;;;4965706;28;19914;-63
2022/08/18 05:15:19;;;;;;;;;;;25.40;70.50;;;;;;4960174;28;19922;-63
2022/08/18 05:17:45;;;;;;;;;;;25.40;70.30;;;;;;4969727;28;19918;-65
2022/08/18 05:20:11;;;;;;;;;;;25.40;70.70;;;;;;4966203;28;19911;-65
2022/08/18 05:22:38;;;;;;;;;;;25.50;71.30;;;;;;4962867;28;19921;-65
2022/08/18 05:25:03;;;;;;;;;;;25.40;72.50;;;;;;4967155;28;19914;-64
2022/08/18 05:27:33;;;;;;;;;;;25.30;72.50;;;;;;4969566;28;19937;-72
2022/08/18 05:30:00;;;;;;;;;;;25.40;73.10;;;;;;4945858;28;19914;-68
2022/08/18 05:32:30;;;;;;;;;;;25.40;73.20;;;;;;4962410;28;19965;-67
2022/08/18 05:34:56;;;;;;;;;;;25.40;73.30;;;;;;4969303;28;19921;-67
2022/08/18 05:37:34;;;;;;;;;;;25.40;73.80;;;;;;4967418;28;20426;-68
2022/08/18 05:40:01;;;;;;;;;;;25.40;73.80;;;;;;4961447;28;20004;-68
2022/08/18 05:42:29;;;;;;;;;;;25.40;74.60;;;;;;4962961;28;19935;-69
2022/08/18 05:44:55;;;;;;;;;;;25.40;74.70;;;;;;4969182;28;20041;-68
2022/08/18 05:47:28;;;;;;;;;;;25.40;74.90;;;;;;4965964;28;20012;-68
2022/08/18 05:49:55;;;;;;;;;;;25.50;75.30;;;;;;4961525;28;19914;-68
2022/08/18 05:52:24;;;;;;;;;;;25.50;75.20;;;;;;4966114;28;19962;-69
2022/08/18 05:57:41;;;;;;;;;;;25.60;74.00;;;;;;4965913;28;20289;-68
2022/08/18 06:00:09;;;;;;;;;;;25.70;73.60;;;;;;4948039;28;19914;-66
2022/08/18 06:02:44;;;;;;;;;;;25.80;71.70;;;;;;4965130;28;19930;-69
2022/08/18 06:05:15;;;;;;;;;;;26.00;71.00;;;;;;4967938;28;19973;-70
2022/08/18 06:07:45;;;;;;;;;;;26.30;71.20;;;;;;4963650;28;19933;-70
2022/08/18 06:10:12;;;;;;;;;;;26.70;71.40;;;;;;4959944;28;19914;-68
2022/08/18 06:12:50;;;;;;;;;;;27.00;69.70;;;;;;4965636;28;19921;-69
2022/08/18 06:15:19;;;;;;;;;;;27.30;69.20;;;;;;4958407;28;19921;-71
2022/08/18 06:17:44;;;;;;;;;;;27.50;67.40;;;;;;4967845;28;19910;-68
2022/08/18 06:20:19;;;;;;;;;;;27.70;65.60;;;;;;4964145;28;19917;-69
2022/08/18 06:22:56;;;;;;;;;;;27.80;66.90;;;;;;4959876;28;20010;-69
2022/08/18 06:25:28;;;;;;;;;;;28.00;65.70;;;;;;4962777;28;20736;-68
2022/08/18 06:27:59;;;;;;;;;;;28.20;63.70;;;;;;4967389;28;19915;-70
2022/08/18 06:30:43;;;;;;;;;;;28.30;62.00;;;;;;4951641;28;20362;-68
2022/08/18 06:33:30;;;;;;;;;;;28.40;61.40;;;;;;4959795;28;19914;-70
2022/08/18 06:36:02;;;;;;;;;;;28.60;61.90;;;;;;4959810;28;19926;-69
2022/08/18 06:38:40;;;;;;;;;;;28.70;62.00;;;;;;4966721;28;20251;-70
2022/08/18 06:41:11;;;;;;;;;;;28.80;59.70;;;;;;4967604;28;19968;-69
2022/08/18 06:43:39;;;;;;;;;;;28.80;58.30;;;;;;4960988;28;19910;-70
2022/08/18 06:46:11;;;;;;;;;;;28.90;58.10;;;;;;4959556;28;20021;-65
2022/08/18 06:48:43;;;;;;;;;;;28.90;58.50;;;;;;4960212;28;19911;-69
2022/08/18 06:51:18;;;;;;;;;;;29.00;58.30;;;;;;4960164;28;20346;-72
2022/08/18 06:53:59;;;;;;;;;;;29.10;57.60;;;;;;4959892;28;20001;-71
2022/08/18 06:56:34;;;;;;;;;;;29.20;57.20;;;;;;4959168;28;19958;-63
2022/08/18 06:59:20;;;;;;;;;;;29.20;56.00;;;;;;4951714;28;20389;-65
2022/08/18 07:01:49;;;;;;;;;;;29.20;56.80;;;;;;4967318;28;19929;-69
2022/08/18 07:04:34;;;;;;;;;;;29.30;56.80;;;;;;4898772;28;1863869;-69
2022/08/18 07:07:11;;;;;;;;;;;29.30;57.30;;;;;;4959941;28;19932;-68
2022/08/18 07:09:36;;;;;;;;;;;29.30;55.90;;;;;;4962556;28;19919;-65
2022/08/18 07:12:02;;;;;;;;;;;29.10;55.80;;;;;;4967703;28;19937;-67
2022/08/18 07:14:27;;;;;;;;;;;28.90;56.10;;;;;;4957952;28;20025;-68
2022/08/18 07:17:09;;;;;;;;;;;28.80;56.30;;;;;;4965282;28;20380;-71
2022/08/18 07:19:35;;;;;;;;;;;28.70;57.10;;;;;;4959621;28;19910;-71
2022/08/18 07:22:12;;;;;;;;;;;28.60;58.10;;;;;;4962052;28;19918;-66
2022/08/18 07:24:42;;;;;;;;;;;28.60;59.30;;;;;;4941404;28;20354;-67
2022/08/18 07:27:08;;;;;;;;;;;28.50;61.70;;;;;;4962410;28;19983;-64
2022/08/18 07:29:36;;;;;;;;;;;28.60;63.00;;;;;;4952073;28;19914;-71
2022/08/18 07:32:08;;;;;;;;;;;28.80;63.30;;;;;;4963470;28;19918;-66
2022/08/18 07:34:42;;;;;;;;;;;28.90;63.10;;;;;;4959456;28;19918;-70
2022/08/18 07:37:13;;;;;;;;;;;29.10;63.60;;;;;;4963629;28;19914;-69
2022/08/18 07:40:02;;;;;;;;;;;29.20;63.20;;;;;;4949982;28;19914;-63
2022/08/18 07:42:31;;;;;;;;;;;29.30;63.00;;;;;;4952521;28;19914;-63
2022/08/18 07:45:02;;;;;;;;;;;29.50;62.80;;;;;;4959402;28;19915;-65
2022/08/18 07:47:53;;;;;;;;;;;29.60;62.50;;;;;;4962516;28;19910;-64
2022/08/18 07:50:21;;;;;;;;;;;29.70;61.80;;;;;;4955274;28;19910;-65
2022/08/18 07:52:55;;;;;;;;;;;29.80;60.30;;;;;;4960568;28;20358;-65
2022/08/18 07:55:29;;;;;;;;;;;29.90;60.20;;;;;;4958898;28;19910;-64
2022/08/18 07:58:14;;;;;;;;;;;30.00;59.70;;;;;;4960586;28;19915;-64
2022/08/18 08:00:49;;;;;;;;;;;30.00;58.60;;;;;;4949087;28;19917;-63
2022/08/18 08:03:26;;;;;;;;;;;30.00;59.20;;;;;;4968836;28;19926;-64
2022/08/18 08:05:54;;;;;;;;;;;30.00;58.80;;;;;;4961175;28;20297;-64
2022/08/18 08:08:29;;;;;;;;;;;29.90;56.00;;;;;;4975538;28;20363;-64
2022/08/18 08:11:08;;;;;;;;;;;30.00;52.60;;;;;;4963072;28;19920;-65
2022/08/18 08:13:47;;;;;;;;;;;30.10;51.20;;;;;;4961581;28;20021;-64
2022/08/18 08:16:21;;;;;;;;;;;30.00;50.50;;;;;;4961812;28;20664;-63
2022/08/18 08:18:47;;;;;;;;;;;30.00;49.30;;;;;;4962827;28;20425;-65
2022/08/18 08:21:17;;;;;;;;;;;30.00;49.00;;;;;;4969650;28;19914;-67
2022/08/18 08:23:53;;;;;;;;;;;30.00;48.20;;;;;;4967053;28;20008;-66
2022/08/18 08:26:23;;;;;;;;;;;29.90;48.50;;;;;;4961448;28;19980;-65
2022/08/18 08:28:57;;;;;;;;;;;29.80;48.60;;;;;;4961378;28;20273;-62
2022/08/18 08:31:41;;;;;;;;;;;29.70;48.30;;;;;;4969303;28;19917;-62
2022/08/18 08:34:07;;;;;;;;;;;29.70;48.70;;;;;;4960111;28;19910;-63
2022/08/18 08:36:34;;;;;;;;;;;29.70;48.50;;;;;;4968928;28;19921;-62
2022/08/18 08:39:02;;;;;;;;;;;29.70;48.50;;;;;;4975233;28;19910;-64
2022/08/18 08:41:38;;;;;;;;;;;29.90;48.20;;;;;;4962624;28;19924;-63
2022/08/18 08:44:20;;;;;;;;;;;30.00;48.30;;;;;;4961007;28;19941;-63
2022/08/18 08:46:51;;;;;;;;;;;30.00;47.80;;;;;;4961130;28;20051;-65
2022/08/18 08:49:34;;;;;;;;;;;30.10;47.30;;;;;;4962100;28;20787;-64
2022/08/18 08:52:10;;;;;;;;;;;30.20;47.40;;;;;;4961029;28;19980;-64
2022/08/18 08:54:36;;;;;;;;;;;30.30;46.90;;;;;;4966315;28;19918;-64
2022/08/18 08:57:03;;;;;;;;;;;30.40;46.90;;;;;;4968802;28;19948;-65
2022/08/18 08:59:29;;;;;;;;;;;30.50;46.10;;;;;;4943249;28;20305;-64
2022/08/18 09:01:54;;;;;;;;;;;30.60;46.20;;;;;;4962376;28;19970;-64
2022/08/18 09:04:20;;;;;;;;;;;30.70;45.20;;;;;;4967247;28;19923;-66
2022/08/18 09:06:51;;;;;;;;;;;30.70;44.50;;;;;;4958985;28;19926;-66
2022/08/18 09:09:29;;;;;;;;;;;30.70;44.90;;;;;;4962905;28;19914;-66
2022/08/18 09:11:54;;;;;;;;;;;30.60;44.70;;;;;;4968494;28;19921;-63
2022/08/18 09:14:20;;;;;;;;;;;30.50;44.30;;;;;;4962404;28;20302;-64
2022/08/18 09:16:45;;;;;;;;;;;30.40;43.60;;;;;;4966341;28;19921;-63
2022/08/18 09:19:31;;;;;;;;;;;30.40;43.90;;;;;;4961914;28;19910;-63
2022/08/18 09:22:06;;;;;;;;;;;30.30;44.10;;;;;;4964589;28;20032;-63
2022/08/18 09:24:40;;;;;;;;;;;30.50;43.90;;;;;;4969683;28;19914;-63
2022/08/18 09:27:13;;;;;;;;;;;30.60;44.60;;;;;;4967164;28;20317;-63
2022/08/18 09:29:45;;;;;;;;;;;30.70;46.30;;;;;;4948561;28;20255;-64
2022/08/18 09:32:19;;;;;;;;;;;30.70;49.00;;;;;;4964748;28;19914;-64
2022/08/18 09:34:53;;;;;;;;;;;30.60;50.00;;;;;;4969412;28;19914;-63
2022/08/18 09:37:21;;;;;;;;;;;30.50;51.40;;;;;;4967415;28;20053;-64
2022/08/18 09:42:52;;;;;;;;;;;30.30;51.70;;;;;;4961695;28;19965;-65
2022/08/18 09:45:30;;;;;;;;;;;30.20;51.80;;;;;;4968311;28;19919;-67
2022/08/18 09:47:57;;;;;;;;;;;30.10;51.40;;;;;;4969456;28;19918;-63
2022/08/18 09:50:27;;;;;;;;;;;30.10;51.10;;;;;;4969202;28;19981;-62
2022/08/18 09:52:57;;;;;;;;;;;30.10;51.20;;;;;;4962087;28;19911;-61
2022/08/18 09:55:23;;;;;;;;;;;30.00;51.50;;;;;;4961552;28;19917;-62
2022/08/18 09:58:08;;;;;;;;;;;30.00;51.00;;;;;;4968298;28;20012;-64
2022/08/18 10:00:34;;;;;;;;;;;30.00;51.20;;;;;;4943252;28;19974;-65
2022/08/18 10:03:02;;;;;;;;;;;30.00;51.10;;;;;;4968963;28;20292;-67
2022/08/18 10:05:30;;;;;;;;;;;30.00;51.10;;;;;;4967377;28;19921;-67
2022/08/18 10:08:00;;;;;;;;;;;30.00;50.30;;;;;;4954689;28;19918;-64
2022/08/18 10:10:46;;;;;;;;;;;30.00;50.50;;;;;;4954480;28;20449;-68
2022/08/18 10:13:11;;;;;;;;;;;30.00;51.20;;;;;;4964382;28;19917;-73
2022/08/18 10:15:55;;;;;;;;;;;30.00;51.00;;;;;;4968024;28;20370;-72
2022/08/18 10:18:24;;;;;;;;;;;30.00;51.80;;;;;;4973593;28;20400;-69
2022/08/18 10:21:02;;;;;;;;;;;30.00;50.60;;;;;;4962821;28;19915;-67
2022/08/18 10:23:46;;;;;;;;;;;30.10;50.20;;;;;;4959482;28;19914;-72
2022/08/18 10:26:30;;;;;;;;;;;30.10;50.30;;;;;;4962535;28;19930;-69
2022/08/18 10:29:12;;;;;;;;;;;30.20;49.80;;;;;;4929189;28;19910;-68
2022/08/18 10:31:49;;;;;;;;;;;30.30;50.00;;;;;;4959800;28;19917;-71
2022/08/18 10:34:35;;;;;;;;;;;30.30;49.10;;;;;;4965667;28;19915;-72
2022/08/18 10:37:02;;;;;;;;;;;30.40;47.90;;;;;;4956603;28;19929;-68
2022/08/18 10:39:37;;;;;;;;;;;30.40;48.00;;;;;;4964670;28;19985;-70
2022/08/18 10:42:10;;;;;;;;;;;30.50;47.90;;;;;;4966795;28;19918;-61
2022/08/18 10:44:40;;;;;;;;;;;30.50;47.90;;;;;;4962749;28;19924;-62
2022/08/18 10:47:06;;;;;;;;;;;30.60;47.70;;;;;;4959455;28;19922;-63
2022/08/18 10:49:32;;;;;;;;;;;30.60;47.10;;;;;;4966081;28;19961;-60
2022/08/18 10:52:04;;;;;;;;;;;30.70;47.30;;;;;;4966550;28;19964;-63
2022/08/18 10:54:41;;;;;;;;;;;30.80;46.80;;;;;;4959846;28;19914;-65
2022/08/18 10:57:13;;;;;;;;;;;30.80;47.00;;;;;;4959901;28;20329;-63
2022/08/18 10:59:42;;;;;;;;;;;30.90;46.50;;;;;;4942371;28;19961;-66
2022/08/18 11:02:07;;;;;;;;;;;30.90;47.00;;;;;;4959776;28;19910;-65
2022/08/18 11:04:33;;;;;;;;;;;30.90;47.70;;;;;;4958290;28;20385;-61
2022/08/18 11:07:04;;;;;;;;;;;31.00;47.90;;;;;;4972397;28;19918;-65
2022/08/18 11:09:30;;;;;;;;;;;30.90;48.60;;;;;;4959131;28;20278;-64
2022/08/18 11:11:59;;;;;;;;;;;30.90;48.80;;;;;;4963303;28;19924;-65
2022/08/18 11:14:40;;;;;;;;;;;30.80;49.70;;;;;;4966346;28;19918;-65
2022/08/18 11:17:09;;;;;;;;;;;30.70;50.30;;;;;;4963751;28;19923;-64
2022/08/18 11:19:39;;;;;;;;;;;30.70;51.40;;;;;;4958629;28;19915;-64
2022/08/18 11:22:05;;;;;;;;;;;30.60;53.00;;;;;;4954403;28;20013;-65
2022/08/18 11:24:34;;;;;;;;;;;30.50;51.80;;;;;;4954677;28;20435;-65
2022/08/18 11:27:03;;;;;;;;;;;30.40;52.40;;;;;;4953843;28;19922;-63
2022/08/18 11:29:32;;;;;;;;;;;30.40;53.00;;;;;;4938962;28;19910;-64
2022/08/18 11:32:00;;;;;;;;;;;30.20;54.80;;;;;;4953247;28;19962;-65
2022/08/18 11:34:33;;;;;;;;;;;30.20;55.30;;;;;;4952850;28;19918;-62
2022/08/18 11:37:00;;;;;;;;;;;30.20;56.00;;;;;;4970716;28;19914;-62
2022/08/18 11:39:27;;;;;;;;;;;30.30;56.80;;;;;;4971252;28;19915;-66
2022/08/18 11:41:52;;;;;;;;;;;30.00;58.10;;;;;;4971370;28;19973;-65
2022/08/18 11:44:21;;;;;;;;;;;29.50;60.00;;;;;;4965887;28;20005;-67
2022/08/18 11:46:46;;;;;;;;;;;29.40;60.90;;;;;;4952984;28;19924;-64
2022/08/18 11:49:14;;;;;;;;;;;29.30;61.80;;;;;;4954914;28;20303;-65
2022/08/18 11:51:51;;;;;;;;;;;29.20;60.80;;;;;;4954722;28;19911;-65
2022/08/18 11:54:21;;;;;;;;;;;28.80;61.80;;;;;;4936614;28;20437;-63
2022/08/18 11:56:47;;;;;;;;;;;28.40;64.80;;;;;;4953501;28;19961;-62
2022/08/18 11:59:25;;;;;;;;;;;28.30;65.20;;;;;;4935944;28;20025;-63
2022/08/18 12:01:53;;;;;;;;;;;28.20;70.00;;;;;;4953258;28;19918;-62
2022/08/18 12:04:19;;;;;;;;;;;27.70;71.90;;;;;;4952868;28;20374;-62
2022/08/18 12:06:54;;;;;;;;;;;24.70;75.90;;;;;;4952253;28;19922;-61
2022/08/18 12:09:20;;;;;;;;;;;23.90;81.80;;;;;;4954873;28;19968;-62
2022/08/18 12:11:50;;;;;;;;;;;23.20;86.70;;;;;;4960882;28;20416;-61
2022/08/18 12:14:20;;;;;;;;;;;23.00;88.20;;;;;;4957885;28;19911;-64
2022/08/18 12:16:46;;;;;;;;;;;22.90;86.10;;;;;;4952671;29;19918;-62
2022/08/18 12:19:14;;;;;;;;;;;23.10;87.00;;;;;;4964706;28;19957;-63
2022/08/18 12:21:59;;;;;;;;;;;23.60;86.30;;;;;;4966969;28;19922;-64
2022/08/18 12:24:32;;;;;;;;;;;24.00;85.50;;;;;;4963379;28;19910;-64
2022/08/18 12:26:58;;;;;;;;;;;24.20;82.00;;;;;;4967530;28;20318;-62
2022/08/18 12:29:24;;;;;;;;;;;24.50;80.60;;;;;;4941185;28;19922;-64
2022/08/18 12:31:50;;;;;;;;;;;24.60;79.00;;;;;;4952350;28;19911;-64
2022/08/18 12:34:16;;;;;;;;;;;24.40;79.50;;;;;;4955713;28;20366;-63
2022/08/18 12:36:42;;;;;;;;;;;24.20;80.30;;;;;;4964202;28;20401;-65
2022/08/18 12:39:07;;;;;;;;;;;23.70;81.00;;;;;;4966686;28;19910;-64
2022/08/18 12:41:33;;;;;;;;;;;23.10;83.50;;;;;;4959926;28;20279;-65
2022/08/18 12:43:58;;;;;;;;;;;23.10;82.90;;;;;;4959788;28;19917;-63
2022/08/18 12:46:24;;;;;;;;;;;23.10;83.40;;;;;;4965918;28;20017;-62
2022/08/18 12:48:50;;;;;;;;;;;23.20;80.10;;;;;;4962919;28;19953;-63
2022/08/18 12:51:16;;;;;;;;;;;23.30;82.70;;;;;;4957904;28;20390;-61
2022/08/18 12:53:41;;;;;;;;;;;23.30;79.80;;;;;;4956791;28;19918;-61
2022/08/18 12:56:13;;;;;;;;;;;23.40;82.30;;;;;;4954569;28;20018;-64
2022/08/18 12:58:39;;;;;;;;;;;23.40;82.40;;;;;;4955439;28;20290;-63
2022/08/18 13:01:05;;;;;;;;;;;23.40;82.70;;;;;;4940266;28;19921;-65
2022/08/18 13:03:30;;;;;;;;;;;23.10;84.80;;;;;;4954870;28;20013;-63
2022/08/18 13:05:56;;;;;;;;;;;23.20;86.20;;;;;;4955100;28;19929;-61
2022/08/18 13:08:22;;;;;;;;;;;23.40;85.00;;;;;;4955563;28;20255;-63
2022/08/18 13:10:47;;;;;;;;;;;23.60;83.50;;;;;;4955573;28;19922;-63
2022/08/18 13:13:17;;;;;;;;;;;23.80;83.20;;;;;;4955491;28;19910;-62
2022/08/18 13:15:43;;;;;;;;;;;23.80;82.40;;;;;;4957640;28;19910;-64
2022/08/18 13:18:08;;;;;;;;;;;24.10;79.80;;;;;;4968291;28;19997;-65
2022/08/18 13:20:35;;;;;;;;;;;24.30;77.80;;;;;;4969374;28;19914;-63
2022/08/18 13:23:01;;;;;;;;;;;24.50;77.40;;;;;;4961741;28;19925;-61
2022/08/18 13:25:26;;;;;;;;;;;24.40;78.40;;;;;;4964068;28;19922;-65
2022/08/18 13:27:52;;;;;;;;;;;24.60;78.70;;;;;;4969664;28;19911;-62
2022/08/18 13:30:18;;;;;;;;;;;24.30;77.60;;;;;;4954880;28;19914;-64
2022/08/18 13:32:44;;;;;;;;;;;24.50;75.80;;;;;;4961414;28;19914;-63
2022/08/18 13:35:10;;;;;;;;;;;24.50;76.10;;;;;;4967664;28;19911;-62
2022/08/18 13:37:35;;;;;;;;;;;24.30;77.80;;;;;;4969306;28;20012;-60
2022/08/18 13:40:02;;;;;;;;;;;24.30;77.70;;;;;;4961359;28;19914;-62
2022/08/18 13:42:28;;;;;;;;;;;24.50;75.70;;;;;;4961117;28;19918;-63
2022/08/18 13:44:55;;;;;;;;;;;24.40;78.10;;;;;;4954594;28;19914;-62
2022/08/18 13:47:21;;;;;;;;;;;24.60;77.70;;;;;;4954583;28;19918;-62
2022/08/18 13:49:47;;;;;;;;;;;24.70;78.00;;;;;;4937162;28;20294;-63
2022/08/18 13:52:13;;;;;;;;;;;24.60;79.60;;;;;;4954058;28;20401;-63
2022/08/18 13:54:39;;;;;;;;;;;24.70;77.10;;;;;;4954285;28;20000;-62
2022/08/18 13:57:05;;;;;;;;;;;24.60;78.20;;;;;;4936957;28;20397;-65
2022/08/18 13:59:32;;;;;;;;;;;24.60;78.70;;;;;;4940788;28;20345;-67
2022/08/18 14:01:58;;;;;;;;;;;24.70;76.80;;;;;;4969659;28;19910;-69
2022/08/18 14:04:24;;;;;;;;;;;24.90;77.50;;;;;;4973055;28;20278;-72
2022/08/18 14:06:50;;;;;;;;;;;24.90;77.20;;;;;;4973545;28;19918;-66
2022/08/18 14:09:16;;;;;;;;;;;24.80;75.80;;;;;;4960390;28;20331;-64
2022/08/18 14:11:41;;;;;;;;;;;24.90;76.30;;;;;;4968416;28;19923;-64
2022/08/18 14:14:07;;;;;;;;;;;24.80;77.90;;;;;;4964027;28;20267;-71
2022/08/18 14:16:33;;;;;;;;;;;24.80;78.40;;;;;;4963223;28;19910;-66
2022/08/18 14:27:14;;;;;;;;;;;25.40;74.50;;;;;;4966555;28;20244;-74
2022/08/18 14:29:42;;;;;;;;;;;25.60;74.10;;;;;;4952595;28;19910;-64
2022/08/18 14:32:08;;;;;;;;;;;25.60;74.20;;;;;;4957783;28;19915;-65
2022/08/18 14:34:34;;;;;;;;;;;25.70;74.00;;;;;;4953430;28;19922;-65
2022/08/18 14:37:00;;;;;;;;;;;25.70;74.70;;;;;;4953123;28;19919;-64
2022/08/18 14:39:26;;;;;;;;;;;25.80;74.90;;;;;;4953396;28;20370;-67
2022/08/18 14:41:52;;;;;;;;;;;25.90;73.70;;;;;;4953380;28;20005;-66
2022/08/18 14:44:17;;;;;;;;;;;26.10;73.10;;;;;;4953260;28;20369;-67
2022/08/18 14:46:46;;;;;;;;;;;26.30;72.50;;;;;;4953090;28;19998;-67
2022/08/18 14:49:12;;;;;;;;;;;26.40;71.80;;;;;;4953107;28;19915;-68
2022/08/18 14:51:41;;;;;;;;;;;26.60;70.30;;;;;;4935950;28;19978;-66